Time;durP1;ratioP1;P1;durP2;ratioP2;P2;SDS_P1;SDS_P2;PMS_P1;PMS_P2;Temp;Humidity;BMP_temperature;BMP_pressure;BME280_temperature;BME280_humidity;BME280_pressure;Samples;Min_cycle;Max_cycle;Signal;HPM_P1;HPM_P2
2022/12/10 00:00:26;;;;;;;52.80;26.70;;;;;;;;;;4997836;28;20405;-42
2022/12/10 00:02:52;;;;;;;53.80;24.80;;;;;;;;;;5010413;28;20412;-43
2022/12/10 00:05:18;;;;;;;43.80;23.77;;;;;;;;;;5004648;28;20449;-44
2022/12/10 00:07:44;;;;;;;46.30;23.30;;;;;;;;;;5003211;28;20696;-42
2022/12/10 00:10:10;;;;;;;51.60;26.40;;;;;;;;;;5004749;28;20927;-42
2022/12/10 00:12:36;;;;;;;53.20;24.30;;;;;;;;;;4999611;28;21038;-41
2022/12/10 00:15:02;;;;;;;54.13;26.03;;;;;;;;;;5002454;28;20449;-42
2022/12/10 00:17:28;;;;;;;54.53;24.30;;;;;;;;;;5000937;28;20451;-41
2022/12/10 00:19:54;;;;;;;48.07;25.33;;;;;;;;;;5001225;28;20900;-42
2022/12/10 00:22:20;;;;;;;54.03;25.10;;;;;;;;;;5001416;28;20407;-42
2022/12/10 00:24:46;;;;;;;50.47;24.70;;;;;;;;;;5006431;28;20407;-42
2022/12/10 00:27:12;;;;;;;52.85;23.35;;;;;;;;;;5001106;28;20411;-43
2022/12/10 00:29:38;;;;;;;46.65;24.73;;;;;;;;;;4997954;28;20175;-44
2022/12/10 00:32:05;;;;;;;49.87;26.00;;;;;;;;;;5000701;28;20466;-41
2022/12/10 00:34:31;;;;;;;47.50;25.15;;;;;;;;;;4999621;28;20400;-42
2022/12/10 00:36:57;;;;;;;48.30;22.83;;;;;;;;;;4996833;28;20208;-42
2022/12/10 00:39:23;;;;;;;62.83;29.60;;;;;;;;;;4992195;28;20416;-41
2022/12/10 00:41:50;;;;;;;61.17;31.00;;;;;;;;;;5000458;28;20411;-43
2022/12/10 00:44:18;;;;;;;52.42;25.00;;;;;;;;;;4998518;28;20419;-42
2022/12/10 00:46:44;;;;;;;57.90;25.63;;;;;;;;;;5002747;28;20563;-42
2022/12/10 00:49:10;;;;;;;49.27;24.73;;;;;;;;;;4998127;28;20183;-42
2022/12/10 00:51:36;;;;;;;46.33;24.00;;;;;;;;;;4996300;28;20491;-41
2022/12/10 00:54:02;;;;;;;47.63;25.17;;;;;;;;;;5003677;28;20212;-41
2022/12/10 00:56:30;;;;;;;50.58;24.02;;;;;;;;;;5001834;28;20204;-42
2022/12/10 00:58:56;;;;;;;53.30;23.35;;;;;;;;;;5003186;28;20203;-41
2022/12/10 01:01:26;;;;;;;46.65;24.35;;;;;;;;;;5001352;28;20169;-41
2022/12/10 01:03:57;;;;;;;50.60;24.48;;;;;;;;;;4999022;28;20211;-44
2022/12/10 01:06:24;;;;;;;59.67;27.63;;;;;;;;;;5002273;28;20196;-44
2022/12/10 01:08:51;;;;;;;55.00;26.17;;;;;;;;;;4996940;28;20181;-43
2022/12/10 01:11:18;;;;;;;63.88;25.83;;;;;;;;;;5003548;28;20238;-41
2022/12/10 01:13:44;;;;;;;54.42;28.38;;;;;;;;;;4997726;28;20209;-42
2022/12/10 01:16:12;;;;;;;55.55;26.20;;;;;;;;;;5001137;28;20184;-41
2022/12/10 01:18:39;;;;;;;62.05;27.42;;;;;;;;;;5000437;28;20181;-44
2022/12/10 01:21:06;;;;;;;50.15;25.35;;;;;;;;;;5000443;28;20173;-41
2022/12/10 01:23:34;;;;;;;49.63;24.33;;;;;;;;;;4999952;28;20181;-42
2022/12/10 01:26:00;;;;;;;53.70;27.08;;;;;;;;;;5005918;28;20193;-41
2022/12/10 01:28:28;;;;;;;53.53;27.08;;;;;;;;;;5003210;28;20200;-42
2022/12/10 01:30:54;;;;;;;49.92;26.83;;;;;;;;;;4998132;28;20693;-41
2022/12/10 01:33:20;;;;;;;58.33;27.00;;;;;;;;;;5001791;28;20224;-41
2022/12/10 01:35:46;;;;;;;50.10;27.00;;;;;;;;;;5001299;28;20819;-41
2022/12/10 01:38:12;;;;;;;51.70;24.83;;;;;;;;;;5003792;28;20491;-42
2022/12/10 01:40:38;;;;;;;47.73;23.20;;;;;;;;;;5001570;28;20455;-42
2022/12/10 01:43:05;;;;;;;59.95;26.63;;;;;;;;;;5004012;28;20420;-41
2022/12/10 01:45:31;;;;;;;52.58;25.88;;;;;;;;;;5002207;28;20275;-41
2022/12/10 01:47:57;;;;;;;57.78;26.08;;;;;;;;;;4996360;28;20177;-41
2022/12/10 01:50:23;;;;;;;54.00;26.93;;;;;;;;;;5003320;28;20549;-42
2022/12/10 01:52:49;;;;;;;57.78;28.20;;;;;;;;;;5001246;28;20502;-41
2022/12/10 01:55:33;;;;;;;59.20;28.00;;;;;;;;;;5002393;28;20232;-42
2022/12/10 01:57:59;;;;;;;53.05;25.00;;;;;;;;;;5002737;28;20766;-42
2022/12/10 02:00:25;;;;;;;63.27;26.00;;;;;;;;;;5000115;28;20169;-42
2022/12/10 02:02:57;;;;;;;52.07;25.10;;;;;;;;;;5000600;28;20451;-41
2022/12/10 02:05:37;;;;;;;46.80;25.30;;;;;;;;;;4999152;28;20436;-41
2022/12/10 02:08:03;;;;;;;53.78;27.23;;;;;;;;;;4993766;28;20185;-41
2022/12/10 02:10:44;;;;;;;48.70;26.90;;;;;;;;;;5003686;28;20183;-41
2022/12/10 02:13:15;;;;;;;47.15;26.10;;;;;;;;;;4992717;28;20460;-43
2022/12/10 02:15:44;;;;;;;55.75;25.92;;;;;;;;;;4996190;28;20197;-41
2022/12/10 02:18:30;;;;;;;50.40;26.35;;;;;;;;;;4998342;28;20176;-42
2022/12/10 02:21:02;;;;;;;51.83;23.88;;;;;;;;;;5005873;28;20199;-43
2022/12/10 02:23:31;;;;;;;42.95;23.98;;;;;;;;;;5004510;28;20188;-43
2022/12/10 02:26:03;;;;;;;45.40;24.38;;;;;;;;;;5005871;28;20204;-42
2022/12/10 02:28:48;;;;;;;48.08;22.95;;;;;;;;;;4999182;28;20180;-41
2022/12/10 02:31:16;;;;;;;41.35;21.50;;;;;;;;;;4997012;28;20188;-41
2022/12/10 02:33:45;;;;;;;46.38;24.92;;;;;;;;;;5003239;28;20287;-41
2022/12/10 02:36:12;;;;;;;43.60;22.30;;;;;;;;;;5002888;28;20192;-41
2022/12/10 02:38:40;;;;;;;39.20;20.98;;;;;;;;;;5003058;28;20647;-42
2022/12/10 02:41:09;;;;;;;41.15;22.50;;;;;;;;;;5013420;28;20184;-42
2022/12/10 02:43:35;;;;;;;43.20;22.08;;;;;;;;;;5003455;28;20231;-41
2022/12/10 02:46:03;;;;;;;45.03;22.50;;;;;;;;;;4994927;28;20200;-41
2022/12/10 02:48:29;;;;;;;36.30;19.40;;;;;;;;;;4998633;28;20256;-41
2022/12/10 02:50:55;;;;;;;32.10;18.30;;;;;;;;;;5004928;28;20311;-42
2022/12/10 02:53:20;;;;;;;36.70;19.53;;;;;;;;;;5001362;28;20290;-43
2022/12/10 02:55:54;;;;;;;42.03;20.33;;;;;;;;;;5004236;28;20446;-43
2022/12/10 02:58:26;;;;;;;25.75;14.60;;;;;;;;;;5005794;28;20408;-41
2022/12/10 03:01:13;;;;;;;24.90;14.57;;;;;;;;;;5001669;28;20180;-41
2022/12/10 03:03:39;;;;;;;26.58;14.98;;;;;;;;;;4999806;28;20670;-43
2022/12/10 03:06:17;;;;;;;24.07;15.07;;;;;;;;;;5001657;28;20423;-41
2022/12/10 03:08:49;;;;;;;26.40;13.05;;;;;;;;;;5003557;28;20415;-42
2022/12/10 03:11:19;;;;;;;20.33;13.02;;;;;;;;;;5006116;28;20250;-41
2022/12/10 03:13:45;;;;;;;25.40;14.00;;;;;;;;;;5001818;28;20207;-41
2022/12/10 03:16:12;;;;;;;22.00;15.20;;;;;;;;;;5004423;28;20188;-41
2022/12/10 03:18:39;;;;;;;22.63;13.07;;;;;;;;;;5004248;28;20400;-42
2022/12/10 03:21:06;;;;;;;21.15;13.52;;;;;;;;;;4998780;28;20173;-42
2022/12/10 03:23:33;;;;;;;23.40;14.65;;;;;;;;;;5005877;28;20207;-42
2022/12/10 03:26:00;;;;;;;24.92;14.75;;;;;;;;;;5002571;28;20307;-41
2022/12/10 03:28:26;;;;;;;20.55;13.25;;;;;;;;;;5002461;28;20185;-42
2022/12/10 03:30:53;;;;;;;22.88;14.27;;;;;;;;;;5003671;28;20173;-42
2022/12/10 03:33:19;;;;;;;21.40;13.75;;;;;;;;;;5001944;28;20192;-42
2022/12/10 03:35:46;;;;;;;21.38;13.43;;;;;;;;;;5002398;28;20204;-41
2022/12/10 03:38:12;;;;;;;21.90;12.65;;;;;;;;;;5001940;28;20176;-42
2022/12/10 03:40:38;;;;;;;21.63;12.82;;;;;;;;;;5006081;28;20276;-41
2022/12/10 03:43:04;;;;;;;21.53;13.00;;;;;;;;;;5001660;28;20268;-41
2022/12/10 03:45:30;;;;;;;23.23;13.97;;;;;;;;;;4999903;28;20436;-41
2022/12/10 03:47:56;;;;;;;21.30;14.37;;;;;;;;;;5001990;28;20453;-42
2022/12/10 03:50:22;;;;;;;17.40;12.17;;;;;;;;;;5001886;28;20412;-42
2022/12/10 03:52:48;;;;;;;21.23;12.47;;;;;;;;;;5003456;28;20816;-43
2022/12/10 03:55:14;;;;;;;18.33;12.57;;;;;;;;;;5005095;28;20428;-41
2022/12/10 03:57:40;;;;;;;21.80;11.53;;;;;;;;;;5005287;28;20410;-41
2022/12/10 04:00:06;;;;;;;22.00;13.00;;;;;;;;;;5000020;28;20913;-42
2022/12/10 04:02:32;;;;;;;16.88;11.32;;;;;;;;;;4997795;28;20419;-42
2022/12/10 04:04:58;;;;;;;22.83;11.77;;;;;;;;;;5004624;28;20196;-41
2022/12/10 04:07:24;;;;;;;22.47;13.57;;;;;;;;;;5003665;28;20442;-42
2022/12/10 04:09:50;;;;;;;15.90;10.87;;;;;;;;;;5003411;28;20519;-41
2022/12/10 04:12:16;;;;;;;24.30;12.87;;;;;;;;;;5003152;28;20985;-42
2022/12/10 04:17:27;;;;;;;25.65;11.63;;;;;;;;;;5000694;28;20439;-41
2022/12/10 04:19:53;;;;;;;19.50;11.83;;;;;;;;;;5002221;28;20205;-41
2022/12/10 04:26:51;;;;;;;21.75;12.10;;;;;;;;;;4993145;28;20430;-41
2022/12/10 04:27:52;;;;;;;21.73;12.40;;;;;;;;;;4998373;28;20239;-41
2022/12/10 04:30:18;;;;;;;21.45;12.45;;;;;;;;;;4999482;28;20181;-41
2022/12/10 04:32:44;;;;;;;19.92;13.00;;;;;;;;;;5004959;28;20204;-41
2022/12/10 04:35:10;;;;;;;23.50;13.57;;;;;;;;;;5004319;28;20250;-41
2022/12/10 04:37:36;;;;;;;22.23;13.55;;;;;;;;;;5001626;28;20906;-42
2022/12/10 04:40:03;;;;;;;22.20;13.20;;;;;;;;;;5004601;28;20211;-41
2022/12/10 04:42:29;;;;;;;22.02;14.40;;;;;;;;;;5001570;28;20898;-41
2022/12/10 04:44:55;;;;;;;23.53;13.27;;;;;;;;;;4996726;28;20209;-41
2022/12/10 04:47:21;;;;;;;26.50;17.30;;;;;;;;;;5004008;28;20407;-42
2022/12/10 04:49:47;;;;;;;20.33;13.80;;;;;;;;;;5001613;28;20475;-42
2022/12/10 04:52:13;;;;;;;17.30;13.20;;;;;;;;;;5003080;28;20685;-42
2022/12/10 04:54:40;;;;;;;25.23;15.15;;;;;;;;;;5000957;28;20397;-42
2022/12/10 04:57:06;;;;;;;25.38;14.48;;;;;;;;;;5002030;28;20192;-41
2022/12/10 04:59:32;;;;;;;24.70;14.50;;;;;;;;;;5001199;28;20651;-41
2022/12/10 05:01:58;;;;;;;25.00;14.73;;;;;;;;;;5000765;28;20267;-41
2022/12/10 05:04:24;;;;;;;26.50;14.50;;;;;;;;;;5004784;28;20770;-41
2022/12/10 05:06:50;;;;;;;25.00;14.97;;;;;;;;;;4995378;28;20818;-42
2022/12/10 05:09:16;;;;;;;24.57;14.93;;;;;;;;;;5000719;28;21288;-42
2022/12/10 05:11:44;;;;;;;20.83;13.05;;;;;;;;;;5001324;28;20411;-41
2022/12/10 05:14:11;;;;;;;23.23;14.30;;;;;;;;;;4993566;28;20682;-44
2022/12/10 05:16:37;;;;;;;24.45;14.50;;;;;;;;;;5000473;28;20274;-41
2022/12/10 05:19:03;;;;;;;25.73;14.13;;;;;;;;;;5005794;28;20206;-41
2022/12/10 05:23:27;;;;;;;23.53;13.33;;;;;;;;;;4998403;28;20411;-42
2022/12/10 05:24:16;;;;;;;22.63;14.02;;;;;;;;;;4993906;28;20938;-41
2022/12/10 05:26:42;;;;;;;23.40;12.63;;;;;;;;;;4995944;28;20204;-41
2022/12/10 05:29:09;;;;;;;20.95;12.15;;;;;;;;;;5003594;28;20204;-41
2022/12/10 05:31:35;;;;;;;24.67;13.95;;;;;;;;;;4998913;28;20248;-42
2022/12/10 05:34:01;;;;;;;23.27;13.15;;;;;;;;;;5003383;28;20200;-41
2022/12/10 05:36:31;;;;;;;25.97;13.57;;;;;;;;;;5000447;28;20203;-41
2022/12/10 05:38:58;;;;;;;24.88;14.38;;;;;;;;;;5002700;28;20436;-41
2022/12/10 05:41:25;;;;;;;26.42;14.40;;;;;;;;;;4999569;28;20172;-41
2022/12/10 05:43:51;;;;;;;24.83;15.18;;;;;;;;;;5001361;28;20246;-41
2022/12/10 05:46:19;;;;;;;21.77;14.07;;;;;;;;;;5003014;28;20188;-42
2022/12/10 05:48:45;;;;;;;24.23;13.43;;;;;;;;;;4999451;28;20254;-41
2022/12/10 05:51:12;;;;;;;22.95;13.07;;;;;;;;;;5000985;28;20175;-42
2022/12/10 05:53:39;;;;;;;23.70;13.32;;;;;;;;;;4989247;28;20260;-41
2022/12/10 05:56:06;;;;;;;22.42;13.80;;;;;;;;;;5003174;28;20311;-45
2022/12/10 05:58:32;;;;;;;20.33;13.23;;;;;;;;;;5008194;28;20634;-41
2022/12/10 06:00:58;;;;;;;25.40;14.90;;;;;;;;;;5004751;28;20276;-43
2022/12/10 06:03:25;;;;;;;21.52;13.43;;;;;;;;;;5006775;28;20178;-43
2022/12/10 06:05:51;;;;;;;28.90;15.13;;;;;;;;;;5001596;28;20206;-43
2022/12/10 06:08:17;;;;;;;31.67;13.60;;;;;;;;;;5002523;28;20266;-43
2022/12/10 06:10:43;;;;;;;19.13;12.37;;;;;;;;;;5011246;28;20407;-43
2022/12/10 06:13:09;;;;;;;23.30;13.47;;;;;;;;;;5006898;28;20546;-43
2022/12/10 06:15:35;;;;;;;27.65;15.50;;;;;;;;;;5004704;28;20487;-43
2022/12/10 06:18:01;;;;;;;20.63;14.47;;;;;;;;;;5007552;28;20181;-43
2022/12/10 06:20:27;;;;;;;24.95;14.93;;;;;;;;;;5005450;28;20416;-43
2022/12/10 06:22:53;;;;;;;23.93;14.77;;;;;;;;;;4999801;28;20193;-43
2022/12/10 06:25:20;;;;;;;23.83;14.05;;;;;;;;;;5006676;28;20473;-43
2022/12/10 06:27:46;;;;;;;30.67;16.57;;;;;;;;;;5004365;28;20260;-43
2022/12/10 06:30:12;;;;;;;25.17;16.50;;;;;;;;;;5006049;28;20399;-43
2022/12/10 06:32:39;;;;;;;20.60;12.60;;;;;;;;;;5003466;28;20457;-43
2022/12/10 06:35:05;;;;;;;22.30;13.95;;;;;;;;;;5005383;28;20196;-43
2022/12/10 06:37:31;;;;;;;18.38;12.93;;;;;;;;;;5003638;28;20542;-43
2022/12/10 06:39:57;;;;;;;24.10;13.07;;;;;;;;;;5003383;28;20177;-43
2022/12/10 06:42:23;;;;;;;24.30;14.10;;;;;;;;;;5007533;28;20927;-43
2022/12/10 06:44:49;;;;;;;23.02;13.50;;;;;;;;;;5002442;28;20196;-43
2022/12/10 06:47:15;;;;;;;25.23;13.50;;;;;;;;;;5003633;28;20172;-43
2022/12/10 06:49:41;;;;;;;23.17;14.00;;;;;;;;;;5003742;28;20397;-43
2022/12/10 06:52:07;;;;;;;24.52;14.80;;;;;;;;;;5003230;28;20412;-42
2022/12/10 06:54:34;;;;;;;26.85;14.90;;;;;;;;;;5002592;28;20212;-43
2022/12/10 06:56:59;;;;;;;30.00;15.45;;;;;;;;;;5008558;28;20193;-43
2022/12/10 06:59:25;;;;;;;30.17;15.87;;;;;;;;;;5005815;28;20275;-43
2022/12/10 07:01:51;;;;;;;25.30;14.40;;;;;;;;;;5000859;28;20420;-43
2022/12/10 07:04:17;;;;;;;28.85;15.07;;;;;;;;;;5001624;28;20862;-43
2022/12/10 07:06:43;;;;;;;28.90;17.05;;;;;;;;;;5002441;28;20196;-43
2022/12/10 07:09:10;;;;;;;28.77;17.70;;;;;;;;;;5005969;28;20684;-43
2022/12/10 07:11:36;;;;;;;28.63;15.82;;;;;;;;;;5003948;28;20955;-43
2022/12/10 07:14:02;;;;;;;29.27;15.90;;;;;;;;;;5006812;28;20192;-43
2022/12/10 07:16:29;;;;;;;30.35;16.80;;;;;;;;;;5004087;28;20275;-43
2022/12/10 07:18:55;;;;;;;36.72;17.08;;;;;;;;;;4999030;28;20188;-43
2022/12/10 07:21:25;;;;;;;29.45;15.90;;;;;;;;;;5005873;28;20203;-43
2022/12/10 07:23:53;;;;;;;37.35;18.10;;;;;;;;;;5003752;28;20181;-43
2022/12/10 07:26:19;;;;;;;39.47;18.83;;;;;;;;;;5004073;28;20700;-43
2022/12/10 07:28:45;;;;;;;40.08;18.00;;;;;;;;;;5002149;28;20569;-43
2022/12/10 07:31:12;;;;;;;34.22;17.23;;;;;;;;;;5002138;28;20169;-43
2022/12/10 07:33:38;;;;;;;27.33;16.88;;;;;;;;;;5003494;28;20200;-43
2022/12/10 07:36:08;;;;;;;27.73;16.85;;;;;;;;;;5001691;28;20216;-43
2022/12/10 07:38:34;;;;;;;33.03;19.75;;;;;;;;;;5007400;28;20176;-42
2022/12/10 07:41:08;;;;;;;35.45;18.60;;;;;;;;;;5001912;28;20248;-43
2022/12/10 07:43:37;;;;;;;43.88;19.58;;;;;;;;;;5000494;28;20191;-43
2022/12/10 07:46:07;;;;;;;46.60;20.17;;;;;;;;;;4993725;28;20272;-43
2022/12/10 07:48:34;;;;;;;33.20;17.92;;;;;;;;;;5001934;28;20166;-44
2022/12/10 07:51:00;;;;;;;30.35;16.77;;;;;;;;;;5004933;28;20227;-43
2022/12/10 07:53:25;;;;;;;35.70;18.43;;;;;;;;;;5004635;28;20259;-43
2022/12/10 07:55:51;;;;;;;29.30;16.93;;;;;;;;;;5006084;28;20449;-44
2022/12/10 07:58:17;;;;;;;38.87;19.20;;;;;;;;;;5001667;28;20404;-43
2022/12/10 08:00:43;;;;;;;37.17;19.70;;;;;;;;;;4998028;28;20519;-43
2022/12/10 08:03:10;;;;;;;37.17;17.97;;;;;;;;;;5003519;28;20438;-43
2022/12/10 08:05:36;;;;;;;31.60;17.52;;;;;;;;;;5002014;28;20423;-43
2022/12/10 08:08:02;;;;;;;32.20;18.20;;;;;;;;;;5003917;28;20183;-43
2022/12/10 08:10:28;;;;;;;30.60;16.20;;;;;;;;;;5001407;28;20408;-43
2022/12/10 08:12:54;;;;;;;26.73;16.53;;;;;;;;;;5003840;28;20846;-43
2022/12/10 08:15:20;;;;;;;32.83;17.00;;;;;;;;;;5000658;28;20467;-43
2022/12/10 08:17:46;;;;;;;31.60;18.45;;;;;;;;;;4996102;28;20451;-43
2022/12/10 08:20:12;;;;;;;30.67;17.13;;;;;;;;;;5004508;28;20212;-43
2022/12/10 08:22:38;;;;;;;32.90;17.73;;;;;;;;;;5001305;28;20211;-43
2022/12/10 08:25:05;;;;;;;37.80;20.08;;;;;;;;;;5003615;28;20427;-43
2022/12/10 08:27:31;;;;;;;35.72;18.50;;;;;;;;;;5000989;28;20165;-42
2022/12/10 08:29:56;;;;;;;40.23;21.13;;;;;;;;;;5002814;28;20177;-43
2022/12/10 08:32:22;;;;;;;35.87;19.03;;;;;;;;;;4999213;28;20415;-43
2022/12/10 08:34:48;;;;;;;34.43;19.90;;;;;;;;;;5002381;28;20415;-43
2022/12/10 08:37:14;;;;;;;31.90;16.97;;;;;;;;;;4995381;28;20416;-43
2022/12/10 08:39:40;;;;;;;30.52;17.75;;;;;;;;;;5000974;28;20400;-43
2022/12/10 08:42:06;;;;;;;31.50;17.67;;;;;;;;;;5001650;28;20580;-43
2022/12/10 08:44:32;;;;;;;26.87;16.07;;;;;;;;;;5000741;28;20176;-43
2022/12/10 08:46:58;;;;;;;28.43;16.83;;;;;;;;;;5000941;28;20439;-43
2022/12/10 08:49:24;;;;;;;26.70;16.50;;;;;;;;;;5000729;28;20408;-43
2022/12/10 08:51:50;;;;;;;31.20;16.90;;;;;;;;;;5005661;28;20419;-43
2022/12/10 08:54:16;;;;;;;30.60;16.53;;;;;;;;;;5001306;28;20478;-43
2022/12/10 08:56:42;;;;;;;30.25;16.67;;;;;;;;;;4997030;28;20945;-43
2022/12/10 08:59:08;;;;;;;30.08;16.77;;;;;;;;;;4999665;28;20177;-43
2022/12/10 09:01:34;;;;;;;30.98;17.42;;;;;;;;;;5000447;28;20710;-43
2022/12/10 09:04:01;;;;;;;30.83;16.50;;;;;;;;;;5004097;28;20169;-43
2022/12/10 09:06:27;;;;;;;28.42;17.23;;;;;;;;;;5001537;28;20470;-44
2022/12/10 09:08:54;;;;;;;30.02;18.95;;;;;;;;;;5003816;28;20180;-43
2022/12/10 09:11:28;;;;;;;34.65;17.85;;;;;;;;;;5000094;28;20180;-43
2022/12/10 09:13:54;;;;;;;31.50;18.02;;;;;;;;;;4995597;28;20208;-43
2022/12/10 09:16:20;;;;;;;35.63;19.35;;;;;;;;;;5003343;28;20211;-43
2022/12/10 09:18:46;;;;;;;33.58;19.80;;;;;;;;;;5000632;28;20243;-43
2022/12/10 09:21:14;;;;;;;35.50;19.60;;;;;;;;;;5002210;28;20172;-43
2022/12/10 09:23:41;;;;;;;41.40;20.67;;;;;;;;;;5001000;28;20535;-43
2022/12/10 09:26:07;;;;;;;35.78;20.75;;;;;;;;;;5000873;28;20193;-44
2022/12/10 09:28:33;;;;;;;40.65;20.70;;;;;;;;;;4999543;28;20246;-43
2022/12/10 09:31:00;;;;;;;49.33;23.87;;;;;;;;;;5000391;28;20653;-43
2022/12/10 09:33:26;;;;;;;38.50;21.10;;;;;;;;;;5004043;28;20463;-43
2022/12/10 09:35:52;;;;;;;41.22;21.30;;;;;;;;;;4998872;28;20263;-43
2022/12/10 09:38:18;;;;;;;39.73;20.80;;;;;;;;;;4999590;28;20181;-43
2022/12/10 09:40:50;;;;;;;42.97;21.90;;;;;;;;;;4999033;28;20494;-43
2022/12/10 09:43:16;;;;;;;45.38;22.27;;;;;;;;;;4989612;28;20208;-43
2022/12/10 09:45:48;;;;;;;48.37;23.00;;;;;;;;;;5000760;28;20670;-42
2022/12/10 09:48:17;;;;;;;49.58;22.27;;;;;;;;;;5006789;28;20910;-42
2022/12/10 09:50:49;;;;;;;38.40;20.40;;;;;;;;;;5003454;28;20523;-43
2022/12/10 09:53:15;;;;;;;44.33;23.30;;;;;;;;;;4993916;28;20560;-43
2022/12/10 09:55:44;;;;;;;49.63;23.10;;;;;;;;;;4999517;28;20705;-43
2022/12/10 09:58:18;;;;;;;42.92;21.52;;;;;;;;;;5003076;28;20226;-43
2022/12/10 10:00:46;;;;;;;43.47;19.75;;;;;;;;;;5000305;28;20184;-43
2022/12/10 10:03:13;;;;;;;44.25;20.80;;;;;;;;;;5001878;28;20713;-42
2022/12/10 10:05:44;;;;;;;44.78;20.83;;;;;;;;;;5000256;28;20749;-42
2022/12/10 10:08:32;;;;;;;47.38;21.90;;;;;;;;;;4999602;28;20208;-43
2022/12/10 10:10:59;;;;;;;48.42;24.02;;;;;;;;;;4998016;28;20201;-43
2022/12/10 10:13:36;;;;;;;40.53;20.73;;;;;;;;;;4997575;28;20247;-42
2022/12/10 10:16:23;;;;;;;46.95;19.98;;;;;;;;;;4993579;28;20235;-43
2022/12/10 10:18:53;;;;;;;40.50;20.25;;;;;;;;;;5000273;28;20688;-44
2022/12/10 10:21:23;;;;;;;43.45;21.00;;;;;;;;;;4991277;28;20181;-42
2022/12/10 10:23:49;;;;;;;39.90;20.15;;;;;;;;;;5001461;28;20185;-43
2022/12/10 10:26:16;;;;;;;46.00;20.52;;;;;;;;;;4995949;28;20201;-43
2022/12/10 10:28:42;;;;;;;44.88;21.80;;;;;;;;;;4991485;28;20177;-43
2022/12/10 10:31:16;;;;;;;51.10;22.80;;;;;;;;;;4991302;28;20541;-43
2022/12/10 10:33:50;;;;;;;46.47;20.00;;;;;;;;;;4972086;28;20275;-42
2022/12/10 10:36:16;;;;;;;41.13;21.67;;;;;;;;;;4972316;28;20304;-40
2022/12/10 10:38:47;;;;;;;52.60;25.00;;;;;;;;;;4988333;28;20651;-40
2022/12/10 10:41:14;;;;;;;46.83;22.88;;;;;;;;;;4992764;28;20499;-42
2022/12/10 10:43:41;;;;;;;57.78;23.75;;;;;;;;;;4994571;28;20180;-41
2022/12/10 10:46:11;;;;;;;50.42;22.52;;;;;;;;;;4994421;28;20704;-43
2022/12/10 10:48:37;;;;;;;49.72;23.58;;;;;;;;;;4994839;28;20215;-42
2022/12/10 10:51:09;;;;;;;48.77;22.30;;;;;;;;;;4991523;28;20659;-42
2022/12/10 10:53:46;;;;;;;42.45;19.85;;;;;;;;;;4975018;28;20989;-41
2022/12/10 10:56:16;;;;;;;54.10;23.02;;;;;;;;;;4992805;28;20200;-41
2022/12/10 10:58:58;;;;;;;51.47;24.30;;;;;;;;;;4994688;28;20248;-42
2022/12/10 11:01:25;;;;;;;55.33;24.20;;;;;;;;;;4994751;28;20176;-41
2022/12/10 11:03:55;;;;;;;52.20;23.75;;;;;;;;;;4994575;28;20264;-41
2022/12/10 11:06:21;;;;;;;61.75;26.15;;;;;;;;;;4992809;28;20305;-41
2022/12/10 11:08:48;;;;;;;48.83;23.33;;;;;;;;;;4994283;28;20187;-44
2022/12/10 11:11:14;;;;;;;55.50;23.88;;;;;;;;;;4994754;28;20323;-42
2022/12/10 11:13:40;;;;;;;55.20;25.07;;;;;;;;;;4993091;28;20303;-42
2022/12/10 11:16:18;;;;;;;46.88;22.23;;;;;;;;;;4988418;28;20450;-41
2022/12/10 11:19:02;;;;;;;51.72;22.70;;;;;;;;;;4994174;28;20184;-43
2022/12/10 11:21:29;;;;;;;62.35;25.92;;;;;;;;;;4994337;28;20215;-41
2022/12/10 11:23:56;;;;;;;59.42;25.35;;;;;;;;;;4994208;28;20188;-41
2022/12/10 11:26:29;;;;;;;63.45;24.77;;;;;;;;;;4993703;28;20201;-44
2022/12/10 11:29:09;;;;;;;56.30;24.38;;;;;;;;;;4994016;28;20212;-41
2022/12/10 11:31:43;;;;;;;57.05;24.63;;;;;;;;;;4993727;28;20702;-43
2022/12/10 11:34:28;;;;;;;47.50;24.98;;;;;;;;;;4993728;28;20573;-43
2022/12/10 11:36:56;;;;;;;59.30;24.92;;;;;;;;;;4993501;28;20331;-41
2022/12/10 11:39:41;;;;;;;53.20;23.60;;;;;;;;;;4994365;28;20184;-41
2022/12/10 11:42:22;;;;;;;55.33;23.85;;;;;;;;;;4993553;28;20683;-41
2022/12/10 11:44:52;;;;;;;58.25;25.35;;;;;;;;;;4995072;28;20185;-41
2022/12/10 11:47:21;;;;;;;53.35;23.48;;;;;;;;;;4999883;28;20188;-40
2022/12/10 11:49:53;;;;;;;50.72;24.35;;;;;;;;;;5003163;28;20219;-41
2022/12/10 11:52:19;;;;;;;58.60;24.10;;;;;;;;;;5003937;28;20268;-41
2022/12/10 11:55:04;;;;;;;62.73;27.47;;;;;;;;;;5002807;28;20208;-41
2022/12/10 11:57:48;;;;;;;53.55;23.10;;;;;;;;;;4997591;28;20471;-41
2022/12/10 12:00:14;;;;;;;59.03;26.40;;;;;;;;;;4996170;28;20181;-44
2022/12/10 12:02:49;;;;;;;55.90;24.10;;;;;;;;;;4994111;28;20254;-41
2022/12/10 12:05:15;;;;;;;62.03;25.23;;;;;;;;;;5006484;28;20471;-43
2022/12/10 12:08:01;;;;;;;55.13;26.17;;;;;;;;;;5005340;28;20610;-41
2022/12/10 12:10:35;;;;;;;53.00;24.30;;;;;;;;;;5000216;28;20933;-40
2022/12/10 12:13:04;;;;;;;59.03;24.20;;;;;;;;;;4991071;28;20195;-41
2022/12/10 12:15:34;;;;;;;62.83;27.70;;;;;;;;;;4997828;28;20196;-41
2022/12/10 12:18:20;;;;;;;56.35;26.27;;;;;;;;;;5004253;28;20176;-44
2022/12/10 12:20:49;;;;;;;53.45;25.05;;;;;;;;;;5010434;28;20192;-43
2022/12/10 12:23:18;;;;;;;59.35;25.05;;;;;;;;;;5002275;28;20230;-41
2022/12/10 12:25:48;;;;;;;65.68;24.63;;;;;;;;;;5000222;28;20630;-41
2022/12/10 12:28:22;;;;;;;60.60;27.23;;;;;;;;;;5000674;28;20185;-41
2022/12/10 12:30:51;;;;;;;52.45;25.45;;;;;;;;;;5001726;28;20188;-41
2022/12/10 12:33:26;;;;;;;61.05;26.17;;;;;;;;;;5000947;28;20565;-42
2022/12/10 12:35:56;;;;;;;60.58;25.58;;;;;;;;;;5006273;28;20195;-41
2022/12/10 12:38:27;;;;;;;62.47;27.65;;;;;;;;;;5002837;28;20172;-42
2022/12/10 12:41:09;;;;;;;57.55;27.60;;;;;;;;;;4998699;28;20651;-42
2022/12/10 12:43:35;;;;;;;58.85;26.33;;;;;;;;;;4996672;28;20188;-44
2022/12/10 12:46:03;;;;;;;61.77;27.07;;;;;;;;;;5003702;28;20208;-41
2022/12/10 12:48:42;;;;;;;61.55;26.63;;;;;;;;;;5002244;28;20809;-42
2022/12/10 12:51:19;;;;;;;61.97;25.67;;;;;;;;;;4993512;28;20638;-41
2022/12/10 12:53:46;;;;;;;59.15;27.98;;;;;;;;;;5001882;28;20287;-41
2022/12/10 12:56:30;;;;;;;60.97;26.63;;;;;;;;;;4992157;28;20204;-42
2022/12/10 12:59:02;;;;;;;66.93;28.63;;;;;;;;;;5001921;28;20188;-42
2022/12/10 13:01:34;;;;;;;59.75;26.25;;;;;;;;;;4999164;28;20529;-43
2022/12/10 13:04:02;;;;;;;51.42;23.73;;;;;;;;;;5004692;28;20288;-46
2022/12/10 13:06:29;;;;;;;52.28;26.13;;;;;;;;;;5003943;28;20194;-46
2022/12/10 13:09:14;;;;;;;58.13;25.48;;;;;;;;;;4996143;28;20184;-44
2022/12/10 13:11:39;;;;;;;60.55;26.50;;;;;;;;;;4992060;28;20556;-46
2022/12/10 13:14:08;;;;;;;55.17;27.07;;;;;;;;;;4992551;28;20216;-44
2022/12/10 13:16:47;;;;;;;62.08;27.55;;;;;;;;;;4992311;28;20908;-43
2022/12/10 13:19:19;;;;;;;59.50;26.90;;;;;;;;;;4986114;28;20169;-44
2022/12/10 13:21:51;;;;;;;56.80;23.88;;;;;;;;;;4992557;28;20836;-43
2022/12/10 13:24:47;;;;;;;57.83;24.52;;;;;;;;;;4992586;28;20265;-44
2022/12/10 13:27:14;;;;;;;61.40;25.85;;;;;;;;;;4991776;28;20189;-46
2022/12/10 13:29:52;;;;;;;57.50;24.35;;;;;;;;;;4992685;28;20181;-47
2022/12/10 13:32:20;;;;;;;52.58;25.15;;;;;;;;;;4988757;28;20581;-44
2022/12/10 13:34:46;;;;;;;54.97;25.13;;;;;;;;;;4992610;28;20355;-45
2022/12/10 13:37:17;;;;;;;47.85;24.63;;;;;;;;;;4991012;28;20192;-45
2022/12/10 13:39:48;;;;;;;57.17;26.30;;;;;;;;;;4992184;28;20181;-45
2022/12/10 13:45:03;;;;;;;58.95;25.60;;;;;;;;;;4978324;28;20220;-46
2022/12/10 13:47:35;;;;;;;55.08;25.02;;;;;;;;;;4992169;28;20646;-44
2022/12/10 13:50:37;;;;;;;58.17;26.42;;;;;;;;;;4992420;28;20188;-45
2022/12/10 13:53:03;;;;;;;56.00;24.80;;;;;;;;;;4989389;28;20192;-44
2022/12/10 13:55:34;;;;;;;59.60;25.80;;;;;;;;;;4977673;28;20858;-44
2022/12/10 13:58:09;;;;;;;55.92;25.58;;;;;;;;;;4972537;28;20405;-45
2022/12/10 14:00:38;;;;;;;54.65;25.73;;;;;;;;;;4990396;28;20181;-45
2022/12/10 14:03:09;;;;;;;62.15;28.75;;;;;;;;;;4992142;28;20189;-46
2022/12/10 14:05:41;;;;;;;55.53;25.77;;;;;;;;;;4991553;28;20755;-45
2022/12/10 14:08:11;;;;;;;59.10;26.08;;;;;;;;;;4991770;28;20320;-44
2022/12/10 14:10:37;;;;;;;61.33;27.42;;;;;;;;;;4998600;28;20190;-45
2022/12/10 14:13:03;;;;;;;52.50;23.67;;;;;;;;;;5005440;28;20224;-44
2022/12/10 14:15:30;;;;;;;60.92;28.00;;;;;;;;;;4993296;28;20226;-45
2022/12/10 14:18:04;;;;;;;63.58;26.52;;;;;;;;;;4995235;28;20189;-44
2022/12/10 14:20:31;;;;;;;50.53;23.27;;;;;;;;;;4995783;28;20177;-44
2022/12/10 14:25:47;;;;;;;53.33;24.52;;;;;;;;;;4995346;28;20307;-46
2022/12/10 14:28:15;;;;;;;57.33;27.20;;;;;;;;;;4995584;28;20261;-46
2022/12/10 14:30:45;;;;;;;54.42;25.25;;;;;;;;;;4994997;28;20219;-44
2022/12/10 14:33:13;;;;;;;53.47;24.40;;;;;;;;;;4995153;28;20216;-45
2022/12/10 14:35:39;;;;;;;54.38;24.92;;;;;;;;;;4995007;28;20567;-44